createdAt,value
2023-11-27T00:01:26.683Z,92.00
2023-11-27T00:03:54.351Z,91.36
2023-11-27T00:06:21.772Z,90.87
2023-11-27T00:08:49.029Z,90.25
2023-11-27T00:11:16.408Z,89.76
2023-11-27T00:13:43.740Z,89.56
2023-11-27T00:16:11.781Z,89.61
2023-11-27T00:18:39.550Z,89.49
2023-11-27T00:21:07.568Z,89.58
2023-11-27T00:23:34.886Z,89.91
2023-11-27T00:26:02.183Z,89.80
2023-11-27T00:28:29.430Z,89.86
2023-11-27T00:30:57.814Z,89.71
2023-11-27T00:33:25.704Z,89.34
2023-11-27T00:35:52.961Z,89.35
2023-11-27T00:38:20.776Z,91.73
2023-11-27T00:40:48.160Z,93.31
2023-11-27T00:43:15.499Z,93.98
2023-11-27T00:45:42.984Z,94.15
2023-11-27T00:48:10.655Z,93.99
2023-11-27T00:50:38.476Z,93.71
2023-11-27T00:53:05.796Z,93.51
2023-11-27T00:55:33.107Z,92.67
2023-11-27T00:58:00.442Z,91.78
2023-11-27T01:00:27.786Z,90.88
2023-11-27T01:02:55.282Z,89.96
2023-11-27T01:05:22.808Z,89.37
2023-11-27T01:07:50.148Z,88.84
2023-11-27T01:10:18.707Z,88.15
2023-11-27T01:12:48.119Z,87.59
2023-11-27T01:15:18.288Z,88.06
2023-11-27T01:17:45.592Z,89.88
2023-11-27T01:20:13.008Z,89.76
2023-11-27T01:22:40.323Z,89.29
2023-11-27T01:25:08.281Z,88.53
2023-11-27T01:27:36.440Z,87.98
2023-11-27T01:30:05.133Z,87.31
2023-11-27T01:32:32.852Z,86.72
2023-11-27T01:35:00.308Z,86.34
2023-11-27T01:37:28.012Z,86.60
2023-11-27T01:39:55.635Z,86.29
2023-11-27T01:42:22.974Z,86.11
2023-11-27T01:44:50.457Z,85.95
2023-11-27T01:47:17.757Z,85.65
2023-11-27T01:49:45.935Z,85.23
2023-11-27T01:52:13.976Z,85.06
2023-11-27T01:54:42.117Z,84.74
2023-11-27T01:57:09.542Z,84.49
2023-11-27T01:59:36.919Z,84.43
2023-11-27T02:02:05.776Z,84.73
2023-11-27T02:04:33.655Z,84.92
2023-11-27T02:07:01.074Z,84.56
2023-11-27T02:09:28.996Z,84.29
2023-11-27T02:11:56.334Z,84.40
2023-11-27T02:14:23.647Z,84.17
2023-11-27T02:16:51.004Z,83.79
2023-11-27T02:19:18.392Z,83.51
2023-11-27T02:21:46.730Z,83.04
2023-11-27T02:24:14.208Z,82.74
2023-11-27T02:26:41.492Z,82.42
2023-11-27T02:29:09.081Z,82.34
2023-11-27T02:31:36.511Z,81.91
2023-11-27T02:34:04.009Z,81.48
2023-11-27T02:36:36.731Z,81.35
2023-11-27T02:39:07.550Z,81.05
2023-11-27T02:41:38.517Z,80.93
2023-11-27T02:44:08.551Z,80.59
2023-11-27T02:46:36.824Z,80.19
2023-11-27T02:49:04.330Z,79.83
2023-11-27T02:51:31.717Z,79.74
2023-11-27T02:53:59.089Z,79.64
2023-11-27T02:56:26.512Z,79.37
2023-11-27T02:58:54.636Z,79.12
2023-11-27T03:01:25.411Z,78.96
2023-11-27T03:03:53.016Z,78.86
2023-11-27T03:06:20.624Z,78.81
2023-11-27T03:08:47.930Z,78.79
2023-11-27T03:11:15.761Z,78.90
2023-11-27T03:13:43.159Z,79.10
2023-11-27T03:16:10.663Z,79.20
2023-11-27T03:18:38.675Z,79.06
2023-11-27T03:21:06.586Z,78.74
2023-11-27T03:23:33.988Z,78.68
2023-11-27T03:26:03.034Z,79.01
2023-11-27T03:28:30.324Z,79.00
2023-11-27T03:30:57.764Z,78.96
2023-11-27T03:33:24.997Z,79.10
2023-11-27T03:35:52.527Z,79.39
2023-11-27T03:38:19.882Z,82.03
2023-11-27T03:40:47.158Z,83.05
2023-11-27T03:43:14.534Z,82.79
2023-11-27T03:45:42.550Z,82.32
2023-11-27T03:48:10.001Z,82.94
2023-11-27T03:50:37.288Z,83.41
2023-11-27T03:53:05.507Z,83.31
2023-11-27T03:55:32.822Z,83.50
2023-11-27T03:58:00.293Z,84.03
2023-11-27T04:00:27.706Z,84.10
2023-11-27T04:02:54.978Z,83.97
2023-11-27T04:05:22.675Z,83.47
2023-11-27T04:07:49.997Z,82.99
2023-11-27T04:10:18.367Z,82.89
2023-11-27T04:12:46.867Z,82.47
2023-11-27T04:15:15.440Z,82.26
2023-11-27T04:17:42.756Z,82.18
2023-11-27T04:20:12.907Z,81.93
2023-11-27T04:22:40.302Z,81.67
2023-11-27T04:25:08.168Z,81.62
2023-11-27T04:27:35.648Z,81.62
2023-11-27T04:30:06.019Z,81.48
2023-11-27T04:32:34.228Z,82.29
2023-11-27T04:35:01.654Z,85.18
2023-11-27T04:37:29.016Z,86.30
2023-11-27T04:39:56.433Z,86.06
2023-11-27T04:42:26.651Z,86.34
2023-11-27T04:44:54.050Z,86.53
2023-11-27T04:47:21.933Z,93.76
2023-11-27T04:49:49.326Z,98.03
2023-11-27T04:52:16.683Z,99.81
2023-11-27T04:54:44.027Z,100.00
2023-11-27T04:57:11.498Z,100.00
2023-11-27T04:59:38.808Z,100.00
2023-11-27T05:02:06.430Z,100.00
2023-11-27T05:04:35.180Z,100.00
2023-11-27T05:07:02.950Z,100.00
2023-11-27T05:09:33.168Z,100.00
2023-11-27T05:12:00.557Z,100.00
2023-11-27T05:14:27.878Z,100.00
2023-11-27T05:16:55.162Z,100.00
2023-11-27T05:19:22.565Z,100.00
2023-11-27T05:21:50.202Z,100.00
2023-11-27T05:24:17.469Z,100.00
2023-11-27T05:26:44.820Z,100.00
2023-11-27T05:29:13.003Z,100.00
2023-11-27T05:31:40.405Z,100.00
2023-11-27T05:34:09.126Z,100.00
2023-11-27T05:36:36.529Z,100.00
2023-11-27T05:39:07.018Z,100.00
2023-11-27T05:41:34.481Z,99.94
2023-11-27T05:44:04.002Z,99.50
2023-11-27T05:46:31.715Z,98.91
2023-11-27T05:49:02.681Z,98.24
2023-11-27T05:51:30.003Z,97.66
2023-11-27T05:53:57.911Z,96.88
2023-11-27T05:56:25.185Z,96.81
2023-11-27T05:58:52.499Z,96.34
2023-11-27T06:01:19.786Z,95.45
2023-11-27T06:03:47.260Z,97.39
2023-11-27T06:06:14.646Z,100.00
2023-11-27T06:08:42.943Z,100.00
2023-11-27T06:11:10.239Z,100.00
2023-11-27T06:13:37.599Z,100.00
2023-11-27T06:16:05.695Z,100.00
2023-11-27T06:19:47.661Z,100.00
2023-11-27T06:22:15.583Z,100.00
2023-11-27T06:24:43.058Z,99.79
2023-11-27T06:27:10.363Z,98.27
2023-11-27T06:29:37.709Z,97.60
2023-11-27T06:32:06.032Z,96.32
2023-11-27T06:34:33.540Z,95.94
2023-11-27T06:37:00.953Z,93.99
2023-11-27T06:39:28.379Z,91.66
2023-11-27T06:41:55.856Z,90.02
2023-11-27T06:44:23.150Z,89.00
2023-11-27T06:46:50.661Z,87.66
2023-11-27T06:49:18.176Z,86.14
2023-11-27T06:51:46.100Z,85.53
2023-11-27T06:54:14.084Z,84.73
2023-11-27T06:56:41.978Z,84.15
2023-11-27T06:59:09.355Z,83.57
2023-11-27T07:01:40.994Z,83.15
2023-11-27T07:04:09.362Z,83.20
2023-11-27T07:06:39.684Z,83.21
2023-11-27T07:09:07.339Z,82.96
2023-11-27T07:11:34.968Z,82.70
2023-11-27T07:14:02.891Z,82.36
2023-11-27T07:16:31.013Z,82.30
2023-11-27T07:18:58.807Z,84.71
2023-11-27T07:21:27.099Z,86.29
2023-11-27T07:23:55.031Z,87.60
2023-11-27T07:26:22.873Z,88.57
2023-11-27T07:28:50.222Z,91.28
2023-11-27T07:31:18.004Z,90.85
2023-11-27T07:33:45.884Z,88.77
2023-11-27T07:36:13.297Z,86.61
2023-11-27T07:38:43.807Z,85.75
2023-11-27T07:41:11.239Z,85.03
2023-11-27T07:43:39.580Z,83.85
2023-11-27T07:46:16.170Z,83.60
2023-11-27T07:48:43.827Z,83.00
2023-11-27T07:51:11.126Z,83.79
2023-11-27T07:53:38.407Z,82.80
2023-11-27T07:56:06.749Z,81.35
2023-11-27T07:58:34.133Z,80.32
2023-11-27T08:01:01.558Z,79.43
2023-11-27T08:03:29.008Z,78.44
2023-11-27T08:05:56.473Z,78.07
2023-11-27T08:08:23.809Z,77.74
2023-11-27T08:10:51.400Z,77.27
2023-11-27T08:13:20.409Z,76.97
2023-11-27T08:15:48.842Z,76.19
2023-11-27T08:18:16.225Z,75.41
2023-11-27T08:20:44.490Z,75.08
2023-11-27T08:23:13.824Z,74.86
2023-11-27T08:25:45.401Z,74.94
2023-11-27T08:28:13.380Z,74.66
2023-11-27T08:30:43.154Z,74.07
2023-11-27T08:33:10.746Z,73.99
2023-11-27T08:35:38.179Z,73.46
2023-11-27T08:38:05.912Z,73.33
2023-11-27T08:40:33.694Z,73.10
2023-11-27T08:43:01.727Z,72.68
2023-11-27T08:45:29.302Z,72.39
2023-11-27T08:47:56.962Z,72.04
2023-11-27T08:50:26.484Z,71.88
2023-11-27T08:52:59.957Z,71.78
2023-11-27T08:55:32.826Z,71.13
2023-11-27T18:38:44.953Z,66.10
2023-11-27T18:41:12.567Z,66.12
2023-11-27T18:43:40.358Z,66.16
2023-11-27T18:46:08.075Z,66.19
2023-11-27T18:48:35.590Z,66.05
2023-11-27T18:51:03.018Z,66.08
2023-11-27T18:53:30.309Z,66.18
2023-11-27T18:55:57.903Z,66.28
2023-11-27T18:58:26.109Z,66.32
2023-11-27T19:00:53.697Z,66.48
2023-11-27T19:03:21.285Z,66.49
2023-11-27T19:05:48.775Z,66.61
2023-11-27T19:08:16.116Z,66.72
2023-11-27T19:10:43.528Z,66.59
2023-11-27T19:13:12.720Z,66.57
2023-11-27T19:15:41.181Z,66.58
2023-11-27T19:18:08.874Z,66.48
2023-11-27T19:20:36.263Z,66.34
2023-11-27T19:23:04.526Z,66.26
2023-11-27T19:25:32.075Z,66.36
2023-11-27T19:27:59.436Z,66.15
2023-11-27T19:30:26.791Z,65.72
2023-11-27T19:32:54.196Z,65.70
2023-11-27T19:35:21.510Z,65.63
2023-11-27T19:37:49.474Z,65.80
2023-11-27T19:40:17.041Z,66.01
2023-11-27T19:42:44.334Z,66.19
2023-11-27T19:45:11.918Z,66.47
2023-11-27T19:47:39.424Z,66.69
2023-11-27T19:50:11.066Z,67.18
2023-11-27T19:52:38.706Z,67.46
2023-11-27T19:55:07.864Z,67.90
2023-11-27T19:57:35.543Z,68.09
2023-11-27T20:00:03.273Z,68.07
2023-11-27T20:02:37.285Z,67.86
2023-11-27T20:05:06.984Z,67.68
2023-11-27T20:07:34.448Z,67.74
2023-11-27T20:10:02.630Z,67.46
2023-11-27T20:12:30.009Z,67.41
2023-11-27T20:14:57.302Z,67.57
2023-11-27T20:17:24.796Z,67.48
2023-11-27T20:19:53.576Z,67.53
2023-11-27T20:22:21.218Z,67.57
2023-11-27T20:24:49.102Z,67.61
2023-11-27T20:27:16.740Z,67.65
2023-11-27T20:29:46.058Z,67.71
2023-11-27T20:32:15.366Z,67.90
2023-11-27T20:34:42.977Z,67.87
2023-11-27T20:37:10.512Z,67.82
2023-11-27T20:39:37.868Z,67.85
2023-11-27T20:42:05.502Z,67.67
2023-11-27T20:44:39.107Z,67.56
2023-11-27T20:47:11.574Z,67.54
2023-11-27T20:49:39.058Z,67.60
2023-11-27T20:52:10.209Z,67.51
2023-11-27T20:54:46.915Z,67.44
2023-11-27T20:57:14.360Z,67.57
2023-11-27T20:59:42.064Z,67.67
2023-11-27T21:02:09.516Z,67.74
2023-11-27T21:04:42.490Z,67.66
2023-11-27T21:07:12.301Z,67.73
2023-11-27T21:09:39.936Z,67.70
2023-11-27T21:12:08.374Z,67.70
2023-11-27T21:14:35.747Z,67.55
2023-11-27T21:17:03.109Z,67.49
2023-11-27T21:19:30.921Z,67.54
2023-11-27T21:21:58.416Z,67.53
2023-11-27T21:24:27.730Z,67.55
2023-11-27T21:26:55.035Z,67.67
2023-11-27T21:29:23.269Z,67.65
2023-11-27T21:31:51.000Z,67.78
2023-11-27T21:34:18.421Z,67.70
2023-11-27T21:36:47.841Z,67.77
2023-11-27T21:39:15.645Z,67.88
2023-11-27T21:41:44.971Z,67.92
2023-11-27T21:44:12.404Z,67.97
2023-11-27T21:46:42.875Z,68.01
2023-11-27T21:49:10.317Z,68.11
2023-11-27T21:51:37.635Z,67.96
2023-11-27T21:54:07.680Z,68.07
2023-11-27T21:56:35.700Z,68.04
2023-11-27T21:59:03.176Z,68.11
2023-11-27T22:01:31.097Z,68.14
2023-11-27T22:03:58.763Z,68.24
2023-11-27T22:06:26.311Z,68.29
2023-11-27T22:08:53.706Z,68.44
2023-11-27T22:11:21.015Z,68.57
2023-11-27T22:13:48.326Z,68.71
2023-11-27T22:16:16.079Z,68.82
2023-11-27T22:18:43.725Z,68.87
2023-11-27T22:21:11.059Z,68.90
2023-11-27T22:23:38.404Z,69.14
2023-11-27T22:26:06.318Z,69.18
2023-11-27T22:28:34.623Z,69.45
2023-11-27T22:31:02.004Z,69.58
2023-11-27T22:33:29.312Z,69.81
2023-11-27T22:35:56.591Z,69.93
2023-11-27T22:38:23.879Z,70.11
2023-11-27T22:40:51.242Z,70.23
2023-11-27T22:43:18.617Z,70.31
2023-11-27T22:45:46.033Z,70.37
2023-11-27T22:48:13.354Z,70.39
2023-11-27T22:50:40.805Z,70.39
2023-11-27T22:53:08.113Z,70.51
2023-11-27T22:55:36.733Z,70.51
2023-11-27T22:58:04.165Z,70.63
2023-11-27T23:00:31.430Z,70.71
2023-11-27T23:02:58.841Z,70.87
2023-11-27T23:05:26.932Z,70.97
2023-11-27T23:07:54.269Z,71.24
2023-11-27T23:10:21.594Z,71.34
2023-11-27T23:12:49.026Z,71.37
2023-11-27T23:15:16.329Z,71.45
2023-11-27T23:17:43.855Z,71.50
2023-11-27T23:20:12.202Z,71.49
2023-11-27T23:22:39.531Z,71.55
2023-11-27T23:25:07.467Z,71.59
2023-11-27T23:27:34.814Z,71.69
2023-11-27T23:30:02.249Z,71.73
2023-11-27T23:32:30.602Z,71.77
2023-11-27T23:34:58.224Z,71.78
2023-11-27T23:37:25.551Z,71.78
2023-11-27T23:39:52.943Z,71.79
2023-11-27T23:42:20.227Z,71.94
2023-11-27T23:44:47.528Z,71.99
2023-11-27T23:47:14.884Z,72.13
2023-11-27T23:49:42.300Z,72.15
2023-11-27T23:52:09.657Z,72.25
2023-11-27T23:54:36.946Z,72.33
2023-11-27T23:57:04.716Z,72.33
2023-11-27T23:59:31.970Z,72.37
